createdAt,value
2022-12-25T00:00:01.115Z,39.70
2022-12-25T00:02:30.439Z,39.50
2022-12-25T00:04:58.580Z,39.30
2022-12-25T00:07:26.622Z,39.60
2022-12-25T00:09:54.603Z,39.20
2022-12-25T00:12:24.080Z,39.50
2022-12-25T00:14:52.158Z,39.70
2022-12-25T00:17:20.189Z,39.10
2022-12-25T00:19:48.175Z,39.90
2022-12-25T00:22:16.459Z,39.20
2022-12-25T00:24:44.467Z,39.70
2022-12-25T00:27:12.507Z,39.80
2022-12-25T00:29:41.855Z,40.00
2022-12-25T00:32:10.641Z,39.70
2022-12-25T00:34:38.648Z,39.10
2022-12-25T00:37:06.643Z,39.30
2022-12-25T00:39:34.687Z,40.00
2022-12-25T00:42:20.814Z,39.20
2022-12-25T00:44:51.376Z,39.60
2022-12-25T00:47:19.613Z,39.70
2022-12-25T00:49:47.679Z,39.60
2022-12-25T00:52:16.180Z,39.40
2022-12-25T00:54:44.192Z,39.80
2022-12-25T00:57:12.202Z,39.50
2022-12-25T00:59:40.330Z,39.50
2022-12-25T01:02:25.274Z,38.90
2022-12-25T01:04:56.179Z,39.70
2022-12-25T01:07:26.585Z,39.70
2022-12-25T01:10:12.289Z,39.50
2022-12-25T01:12:43.133Z,38.70
2022-12-25T01:15:13.277Z,39.50
2022-12-25T01:17:43.281Z,39.40
2022-12-25T01:20:13.455Z,39.70
2022-12-25T01:22:41.833Z,39.40
2022-12-25T01:25:11.968Z,39.70
2022-12-25T01:27:41.710Z,39.80
2022-12-25T01:30:11.889Z,38.80
2022-12-25T01:32:39.920Z,39.20
2022-12-25T01:35:10.170Z,39.00
2022-12-25T01:37:38.203Z,39.50
2022-12-25T01:40:09.316Z,39.30
2022-12-25T01:42:37.620Z,40.50
2022-12-25T01:45:39.402Z,39.70
2022-12-25T01:48:17.750Z,39.50
2022-12-25T01:50:51.038Z,39.50
2022-12-25T01:53:19.262Z,39.20
2022-12-25T01:55:52.984Z,39.50
2022-12-25T01:58:21.225Z,39.10
2022-12-25T02:00:49.513Z,39.20
2022-12-25T02:03:18.023Z,39.30
2022-12-25T02:05:48.151Z,39.90
2022-12-25T02:08:18.643Z,39.00
2022-12-25T02:10:47.311Z,39.80
2022-12-25T02:13:19.836Z,39.30
2022-12-25T02:15:58.816Z,39.80
2022-12-25T02:18:37.760Z,39.00
2022-12-25T02:21:40.000Z,39.70
2022-12-25T02:24:25.015Z,39.50
2022-12-25T02:27:05.921Z,39.20
2022-12-25T02:29:43.573Z,39.50
2022-12-25T02:32:21.710Z,39.70
2022-12-25T02:34:54.400Z,39.70
2022-12-25T02:37:28.512Z,39.60
2022-12-25T02:40:02.333Z,39.80
2022-12-25T02:42:56.479Z,39.60
2022-12-25T02:45:52.881Z,39.80
2022-12-25T02:48:42.273Z,39.20
2022-12-25T02:51:33.184Z,39.50
2022-12-25T02:54:23.992Z,39.60
2022-12-25T02:57:11.182Z,39.80
2022-12-25T02:59:59.703Z,39.30
2022-12-25T03:02:49.695Z,39.40
2022-12-25T03:05:40.814Z,39.60
2022-12-25T03:08:13.562Z,39.20
2022-12-25T03:11:04.236Z,39.40
2022-12-25T03:13:39.001Z,39.70
2022-12-25T03:16:25.758Z,40.20
2022-12-25T03:18:58.313Z,39.60
2022-12-25T03:21:43.953Z,39.60
2022-12-25T03:24:37.831Z,39.60
2022-12-25T03:27:05.830Z,39.50
2022-12-25T03:29:52.846Z,39.50
2022-12-25T03:32:40.826Z,39.50
2022-12-25T03:35:24.260Z,38.90
2022-12-25T03:38:29.633Z,40.00
2022-12-25T03:41:33.570Z,39.40
2022-12-25T03:44:30.318Z,39.20
2022-12-25T03:47:23.572Z,39.50
2022-12-25T03:50:20.641Z,39.20
2022-12-25T03:53:10.070Z,39.50
2022-12-25T03:55:56.900Z,39.60
2022-12-25T03:58:45.144Z,39.30
2022-12-25T04:01:31.532Z,39.50
2022-12-25T04:04:17.526Z,39.30
2022-12-25T04:07:03.159Z,39.20
2022-12-25T04:09:50.330Z,39.20
2022-12-25T04:12:35.965Z,39.40
2022-12-25T04:15:21.392Z,39.70
2022-12-25T04:18:10.676Z,39.60
2022-12-25T04:20:56.649Z,39.50
2022-12-25T04:23:42.261Z,39.80
2022-12-25T04:26:28.928Z,39.70
2022-12-25T04:29:14.573Z,39.00
2022-12-25T04:32:00.255Z,38.70
2022-12-25T04:34:46.155Z,39.10
2022-12-25T04:37:14.217Z,39.50
2022-12-25T04:39:42.215Z,38.50
2022-12-25T04:42:11.593Z,38.80
2022-12-25T04:44:39.635Z,39.20
2022-12-25T04:47:11.467Z,39.20
2022-12-25T04:49:40.192Z,38.90
2022-12-25T04:52:08.349Z,38.60
2022-12-25T04:54:36.342Z,39.20
2022-12-25T04:57:04.676Z,38.80
2022-12-25T04:59:34.362Z,39.00
2022-12-25T05:02:02.713Z,38.00
2022-12-25T05:04:30.836Z,38.70
2022-12-25T05:06:58.909Z,38.10
2022-12-25T05:09:27.176Z,38.00
2022-12-25T05:11:55.140Z,38.10
2022-12-25T05:14:23.141Z,38.00
2022-12-25T05:16:52.682Z,37.90
2022-12-25T05:19:20.735Z,38.30
2022-12-25T05:21:48.686Z,37.70
2022-12-25T05:24:16.695Z,37.60
2022-12-25T05:26:44.734Z,37.80
2022-12-25T05:29:12.817Z,37.90
2022-12-25T05:31:40.905Z,38.00
2022-12-25T05:34:10.319Z,37.70
2022-12-25T05:36:40.051Z,37.70
2022-12-25T05:39:08.134Z,37.80
2022-12-25T05:41:36.210Z,37.70
2022-12-25T05:44:04.569Z,37.60
2022-12-25T05:46:32.654Z,37.20
2022-12-25T05:49:00.727Z,37.10
2022-12-25T05:51:30.740Z,37.30
2022-12-25T05:53:59.143Z,37.70
2022-12-25T05:56:27.514Z,37.70
2022-12-25T05:58:57.077Z,37.50
2022-12-25T06:01:29.090Z,37.20
2022-12-25T06:03:58.274Z,37.40
2022-12-25T06:06:26.475Z,37.20
2022-12-25T06:08:56.653Z,37.00
2022-12-25T06:11:24.775Z,37.30
2022-12-25T06:13:54.154Z,37.70
2022-12-25T06:16:22.501Z,37.60
2022-12-25T06:18:52.838Z,37.00
2022-12-25T06:21:20.950Z,37.50
2022-12-25T06:23:49.471Z,37.60
2022-12-25T06:26:20.904Z,37.60
2022-12-25T06:28:49.514Z,37.70
2022-12-25T06:31:21.115Z,37.70
2022-12-25T06:33:49.844Z,37.50
2022-12-25T06:36:20.577Z,37.50
2022-12-25T06:38:49.292Z,37.30
2022-12-25T06:41:20.748Z,37.20
2022-12-25T06:43:49.656Z,37.50
2022-12-25T06:46:17.810Z,37.50
2022-12-25T06:48:49.290Z,37.50
2022-12-25T06:51:18.354Z,37.40
2022-12-25T06:53:46.568Z,37.50
2022-12-25T06:56:18.806Z,37.50
2022-12-25T06:58:49.674Z,37.70
2022-12-25T07:01:22.488Z,37.50
2022-12-25T07:03:54.575Z,37.40
2022-12-25T07:06:23.061Z,37.60
2022-12-25T07:08:51.510Z,36.60
2022-12-25T07:11:22.050Z,37.70
2022-12-25T07:13:50.107Z,37.70
2022-12-25T07:16:18.657Z,36.80
2022-12-25T07:18:46.782Z,37.30
2022-12-25T07:21:17.601Z,37.10
2022-12-25T07:23:47.315Z,36.90
2022-12-25T07:26:17.248Z,36.90
2022-12-25T07:28:46.614Z,37.50
2022-12-25T07:31:17.522Z,37.40
2022-12-25T07:33:46.439Z,37.40
2022-12-25T07:36:15.656Z,37.60
2022-12-25T07:38:43.783Z,37.70
2022-12-25T07:41:13.303Z,36.80
2022-12-25T07:43:42.132Z,37.40
2022-12-25T07:46:12.132Z,37.90
2022-12-25T07:48:40.239Z,37.60
2022-12-25T07:51:13.793Z,36.90
2022-12-25T07:53:42.077Z,37.50
2022-12-25T07:56:14.351Z,37.10
2022-12-25T07:58:43.385Z,37.40
2022-12-25T08:01:17.667Z,37.20
2022-12-25T08:03:50.589Z,37.50
2022-12-25T08:06:19.418Z,37.50
2022-12-25T08:08:47.639Z,37.50
2022-12-25T08:11:15.874Z,37.40
2022-12-25T08:13:43.949Z,37.10
2022-12-25T08:16:13.470Z,37.60
2022-12-25T08:18:42.968Z,37.00
2022-12-25T08:21:13.679Z,37.00
2022-12-25T08:23:44.124Z,37.50
2022-12-25T08:26:15.617Z,37.70
2022-12-25T08:28:43.748Z,37.40
2022-12-25T08:31:18.666Z,37.40
2022-12-25T08:33:48.346Z,37.30
2022-12-25T08:36:17.345Z,37.30
2022-12-25T08:38:46.089Z,37.50
2022-12-25T08:41:15.234Z,36.60
2022-12-25T08:43:43.698Z,37.50
2022-12-25T08:46:12.157Z,36.80
2022-12-25T08:48:43.734Z,37.50
2022-12-25T08:51:15.489Z,37.30
2022-12-25T08:53:43.721Z,37.10
2022-12-25T08:56:12.613Z,37.30
2022-12-25T08:58:41.251Z,37.40
2022-12-25T09:01:09.969Z,36.80
2022-12-25T09:03:38.231Z,37.40
2022-12-25T09:06:10.989Z,37.70
2022-12-25T09:08:45.906Z,37.00
2022-12-25T09:11:17.383Z,36.80
2022-12-25T09:13:45.469Z,37.30
2022-12-25T09:16:17.209Z,36.50
2022-12-25T09:18:45.527Z,37.40
2022-12-25T09:21:17.544Z,37.20
2022-12-25T09:23:46.337Z,37.30
2022-12-25T09:26:16.461Z,37.20
2022-12-25T09:28:51.230Z,37.40
2022-12-25T09:31:21.093Z,37.00
2022-12-25T09:33:49.575Z,37.10
2022-12-25T09:36:21.191Z,37.10
2022-12-25T09:38:49.499Z,37.30
2022-12-25T09:41:22.290Z,37.10
2022-12-25T09:43:58.125Z,37.30
2022-12-25T09:46:36.632Z,37.40
2022-12-25T09:49:15.140Z,37.20
2022-12-25T09:51:46.888Z,37.30
2022-12-25T09:54:22.357Z,37.00
2022-12-25T09:56:50.357Z,37.20
2022-12-25T09:59:25.428Z,36.60
2022-12-25T10:02:33.420Z,37.30
2022-12-25T10:05:20.672Z,36.90
2022-12-25T10:08:02.930Z,36.60
2022-12-25T10:10:49.985Z,36.80
2022-12-25T10:13:49.874Z,37.40
2022-12-25T10:16:30.846Z,37.50
2022-12-25T10:19:13.717Z,37.40
2022-12-25T10:21:42.751Z,37.60
2022-12-25T10:24:31.551Z,37.50
2022-12-25T10:27:02.685Z,36.80
2022-12-25T10:29:33.471Z,37.10
2022-12-25T10:32:01.526Z,37.10
2022-12-25T10:34:29.623Z,37.00
2022-12-25T10:36:57.939Z,36.70
2022-12-25T10:39:27.760Z,36.90
2022-12-25T10:42:16.940Z,37.00
2022-12-25T10:44:57.523Z,37.00
2022-12-25T10:47:29.166Z,37.00
2022-12-25T10:49:58.646Z,37.00
2022-12-25T10:52:29.375Z,37.00
2022-12-25T10:54:58.681Z,36.60
2022-12-25T10:57:27.925Z,36.50
2022-12-25T10:59:57.582Z,37.20
2022-12-25T11:02:28.778Z,37.30
2022-12-25T11:05:03.731Z,37.10
2022-12-25T11:07:33.560Z,36.80
2022-12-25T11:10:06.301Z,37.10
2022-12-25T11:12:38.423Z,36.40
2022-12-25T11:15:35.116Z,37.20
2022-12-25T11:18:04.154Z,36.50
2022-12-25T11:20:33.126Z,37.00
2022-12-25T11:23:01.089Z,36.80
2022-12-25T11:25:29.745Z,37.10
2022-12-25T11:28:00.470Z,37.00
2022-12-25T11:30:30.274Z,36.50
2022-12-25T11:33:03.798Z,37.00
2022-12-25T11:35:47.620Z,37.00
2022-12-25T11:38:15.665Z,36.40
2022-12-25T11:40:48.900Z,37.00
2022-12-25T11:43:23.131Z,37.00
2022-12-25T11:45:55.455Z,37.10
2022-12-25T11:48:28.959Z,36.90
2022-12-25T11:51:01.143Z,36.80
2022-12-25T11:53:38.300Z,36.90
2022-12-25T11:56:10.850Z,37.10
2022-12-25T11:58:43.172Z,37.00
2022-12-25T12:01:22.395Z,36.90
2022-12-25T12:03:51.805Z,37.40
2022-12-25T12:06:29.264Z,36.90
2022-12-25T12:09:03.322Z,36.90
2022-12-25T12:11:37.532Z,37.00
2022-12-25T12:14:23.458Z,37.30
2022-12-25T12:16:51.733Z,37.20
2022-12-25T12:19:29.441Z,37.00
2022-12-25T12:22:00.797Z,36.80
2022-12-25T12:24:35.045Z,36.60
2022-12-25T12:27:06.137Z,37.20
2022-12-25T12:29:44.200Z,36.70
2022-12-25T12:32:38.876Z,36.90
2022-12-25T12:35:16.477Z,37.00
2022-12-25T12:37:47.872Z,37.20
2022-12-25T12:40:28.460Z,36.20
2022-12-25T12:42:56.485Z,36.90
2022-12-25T12:45:29.427Z,36.90
2022-12-25T12:47:58.252Z,36.70
2022-12-25T12:50:40.852Z,37.00
2022-12-25T12:53:28.423Z,36.80
2022-12-25T12:55:57.104Z,36.80
2022-12-25T12:58:33.494Z,36.60
2022-12-25T13:01:15.015Z,37.20
2022-12-25T13:04:26.197Z,36.80
2022-12-25T13:07:05.367Z,36.70
2022-12-25T13:09:50.351Z,36.80
2022-12-25T13:12:18.955Z,36.80
2022-12-25T13:14:48.535Z,36.80
2022-12-25T13:17:21.869Z,37.00
2022-12-25T13:19:54.978Z,36.80
2022-12-25T13:22:30.466Z,36.90
2022-12-25T13:25:01.101Z,37.10
2022-12-25T13:27:31.837Z,37.00
2022-12-25T13:30:00.659Z,37.00
2022-12-25T13:32:31.768Z,36.50
2022-12-25T13:35:01.190Z,36.90
2022-12-25T13:37:32.624Z,36.90
2022-12-25T13:40:02.970Z,36.20
2022-12-25T13:42:32.819Z,37.10
2022-12-25T13:45:05.957Z,36.90
2022-12-25T13:47:36.886Z,36.50
2022-12-25T13:50:20.710Z,37.10
2022-12-25T13:52:50.624Z,36.90
2022-12-25T13:55:21.616Z,37.50
2022-12-25T13:57:55.840Z,36.50
2022-12-25T14:00:30.032Z,36.60
2022-12-25T14:02:58.265Z,37.50
2022-12-25T14:05:34.730Z,36.60
2022-12-25T14:08:16.257Z,37.00
2022-12-25T14:10:47.348Z,37.00
2022-12-25T14:13:17.293Z,36.10
2022-12-25T14:15:47.857Z,36.70
2022-12-25T14:18:17.242Z,36.70
2022-12-25T14:20:59.062Z,37.10
2022-12-25T14:23:33.703Z,36.80
2022-12-25T14:26:01.765Z,37.10
2022-12-25T14:28:32.302Z,36.30
2022-12-25T14:31:01.418Z,36.80
2022-12-25T14:33:35.931Z,36.90
2022-12-25T14:36:04.597Z,36.10
2022-12-25T14:38:35.768Z,36.60
2022-12-25T14:41:07.628Z,36.00
2022-12-25T14:43:36.317Z,36.50
2022-12-25T14:46:07.173Z,36.80
2022-12-25T14:48:35.278Z,37.20
2022-12-25T14:51:06.012Z,36.60
2022-12-25T14:53:41.131Z,36.50
2022-12-25T14:56:10.488Z,36.70
2022-12-25T14:58:43.156Z,36.80
2022-12-25T15:01:23.940Z,37.00
2022-12-25T15:03:52.232Z,37.10
2022-12-25T15:06:24.766Z,36.30
2022-12-25T15:09:06.970Z,36.60
2022-12-25T15:11:34.962Z,36.40
2022-12-25T15:14:03.029Z,36.70
2022-12-25T15:16:35.854Z,36.60
2022-12-25T15:19:04.126Z,36.80
2022-12-25T15:21:35.614Z,36.90
2022-12-25T15:24:05.436Z,36.80
2022-12-25T15:26:33.752Z,36.30
2022-12-25T15:29:02.013Z,36.90
2022-12-25T15:31:32.669Z,36.30
2022-12-25T15:34:03.579Z,36.90
2022-12-25T15:36:31.937Z,36.50
2022-12-25T15:38:59.960Z,36.80
2022-12-25T15:41:50.541Z,36.80
2022-12-25T15:44:18.717Z,36.70
2022-12-25T15:46:47.432Z,36.80
2022-12-25T15:49:17.179Z,36.70
2022-12-25T15:51:46.039Z,37.00
2022-12-25T15:54:14.811Z,36.50
2022-12-25T15:56:47.907Z,36.60
2022-12-25T15:59:17.752Z,36.50
2022-12-25T16:01:49.792Z,36.20
2022-12-25T16:04:17.997Z,36.50
2022-12-25T16:06:46.348Z,36.60
2022-12-25T16:09:16.052Z,36.90
2022-12-25T16:11:45.490Z,36.70
2022-12-25T16:14:13.979Z,36.60
2022-12-25T16:16:42.467Z,36.80
2022-12-25T16:19:10.547Z,36.80
2022-12-25T16:21:41.961Z,36.20
2022-12-25T16:24:10.339Z,36.10
2022-12-25T16:26:38.302Z,36.40
2022-12-25T16:29:08.997Z,36.70
2022-12-25T16:31:38.166Z,36.60
2022-12-25T16:34:09.465Z,37.00
2022-12-25T16:36:38.941Z,36.70
2022-12-25T16:39:08.188Z,36.60
2022-12-25T16:41:36.463Z,36.70
2022-12-25T16:44:09.978Z,37.00
2022-12-25T16:46:38.731Z,35.90
2022-12-25T16:49:07.142Z,36.60
2022-12-25T16:51:35.262Z,36.80
2022-12-25T16:54:03.286Z,36.20
2022-12-25T16:56:32.295Z,36.80
2022-12-25T16:59:01.070Z,37.00
2022-12-25T17:01:30.808Z,36.10
2022-12-25T17:04:02.099Z,37.10
2022-12-25T17:06:30.618Z,37.00
2022-12-25T17:09:02.197Z,36.60
2022-12-25T17:11:30.728Z,36.70
2022-12-25T17:14:01.938Z,36.50
2022-12-25T17:16:33.856Z,37.20
2022-12-25T17:19:07.936Z,36.10
2022-12-25T17:21:38.101Z,36.90
2022-12-25T17:24:08.226Z,36.80
2022-12-25T17:26:36.352Z,36.70
2022-12-25T17:29:04.956Z,37.00
2022-12-25T17:31:34.712Z,36.30
2022-12-25T17:34:03.555Z,36.20
2022-12-25T17:36:32.406Z,36.80
2022-12-25T17:39:01.235Z,36.60
2022-12-25T17:41:29.612Z,36.70
2022-12-25T17:43:57.702Z,36.60
2022-12-25T17:46:28.604Z,37.00
2022-12-25T17:49:01.169Z,36.90
2022-12-25T17:51:31.923Z,36.90
2022-12-25T17:54:03.818Z,37.00
2022-12-25T17:56:33.375Z,36.70
2022-12-25T17:59:06.524Z,36.70
2022-12-25T18:01:35.720Z,37.00
2022-12-25T18:04:06.723Z,36.90
2022-12-25T18:06:37.175Z,36.60
2022-12-25T18:09:07.029Z,36.50
2022-12-25T18:11:36.741Z,36.50
2022-12-25T18:14:07.252Z,36.10
2022-12-25T18:16:38.645Z,36.70
2022-12-25T18:19:08.374Z,36.50
2022-12-25T18:21:37.107Z,36.00
2022-12-25T18:24:07.197Z,36.30
2022-12-25T18:26:35.759Z,36.50
2022-12-25T18:29:04.318Z,36.70
2022-12-25T18:31:33.790Z,36.60
2022-12-25T18:34:02.329Z,36.40
2022-12-25T18:36:32.470Z,36.10
2022-12-25T18:39:00.737Z,36.60
2022-12-25T18:41:30.116Z,36.00
2022-12-25T18:44:00.507Z,36.70
2022-12-25T18:46:28.980Z,36.90
2022-12-25T18:48:58.330Z,36.00
2022-12-25T18:51:34.744Z,36.90
2022-12-25T18:54:06.417Z,36.00
2022-12-25T18:56:34.622Z,36.20
2022-12-25T18:59:02.818Z,36.60
2022-12-25T19:01:31.138Z,36.70
2022-12-25T19:04:05.041Z,36.50
2022-12-25T19:06:34.422Z,36.70
2022-12-25T19:09:09.261Z,36.40
2022-12-25T19:11:45.961Z,36.20
2022-12-25T19:14:14.649Z,36.70
2022-12-25T19:16:42.769Z,36.70
2022-12-25T19:19:10.984Z,36.20
2022-12-25T19:21:39.107Z,36.10
2022-12-25T19:24:07.746Z,36.60
2022-12-25T19:26:37.601Z,36.40
2022-12-25T19:29:07.049Z,36.20
2022-12-25T19:31:36.966Z,35.80
2022-12-25T19:34:06.162Z,35.80
2022-12-25T19:36:34.160Z,36.40
2022-12-25T19:39:02.479Z,36.00
2022-12-25T19:41:30.641Z,36.10
2022-12-25T19:43:59.051Z,36.80
2022-12-25T19:46:31.833Z,36.50
2022-12-25T19:49:03.998Z,36.80
2022-12-25T19:51:34.337Z,36.40
2022-12-25T19:54:02.671Z,36.90
2022-12-25T19:56:31.348Z,36.00
2022-12-25T19:58:59.922Z,36.90
2022-12-25T20:01:30.664Z,36.30
2022-12-25T20:03:59.273Z,36.80
2022-12-25T20:06:30.672Z,36.90
2022-12-25T20:09:02.371Z,36.70
2022-12-25T20:11:33.978Z,36.80
2022-12-25T20:14:02.589Z,37.60
2022-12-25T20:16:32.076Z,36.50
2022-12-25T20:19:00.513Z,36.30
2022-12-25T20:21:29.803Z,36.20
2022-12-25T20:23:58.167Z,36.40
2022-12-25T20:26:29.277Z,36.50
2022-12-25T20:28:58.115Z,36.20
2022-12-25T20:31:28.404Z,36.40
2022-12-25T20:34:00.165Z,36.50
2022-12-25T20:36:36.149Z,36.80
2022-12-25T20:39:06.230Z,36.40
2022-12-25T20:41:34.283Z,36.10
2022-12-25T20:44:04.065Z,35.70
2022-12-25T20:46:32.235Z,36.00
2022-12-25T20:49:03.337Z,36.00
2022-12-25T20:51:31.362Z,36.40
2022-12-25T20:53:59.476Z,36.10
2022-12-25T20:56:29.921Z,36.70
2022-12-25T20:59:00.374Z,36.00
2022-12-25T21:01:30.620Z,36.50
2022-12-25T21:03:59.425Z,36.50
2022-12-25T21:06:28.917Z,36.50
2022-12-25T21:08:56.962Z,36.10
2022-12-25T21:11:25.039Z,36.70
2022-12-25T21:13:53.549Z,36.70
2022-12-25T21:16:23.414Z,36.30
2022-12-25T21:18:53.991Z,36.60
2022-12-25T21:21:23.254Z,36.50
2022-12-25T21:23:52.671Z,35.70
2022-12-25T21:26:27.485Z,36.00
2022-12-25T21:29:00.032Z,36.00
2022-12-25T21:31:28.746Z,36.60
2022-12-25T21:33:57.482Z,36.40
2022-12-25T21:36:28.222Z,36.30
2022-12-25T21:39:00.462Z,35.80
2022-12-25T21:41:30.882Z,36.50
2022-12-25T21:43:59.514Z,36.20
2022-12-25T21:46:29.198Z,35.80
2022-12-25T21:48:58.133Z,35.80
2022-12-25T21:52:01.364Z,35.60
2022-12-25T21:54:30.610Z,36.50
2022-12-25T21:56:58.637Z,36.30
2022-12-25T21:59:26.914Z,35.80
2022-12-25T22:01:55.139Z,35.50
2022-12-25T22:04:24.380Z,36.60
2022-12-25T22:07:10.680Z,35.50
2022-12-25T22:09:40.103Z,36.30
2022-12-25T22:12:33.503Z,36.40
2022-12-25T22:15:06.356Z,36.40
2022-12-25T22:17:55.419Z,36.50
2022-12-25T22:20:27.648Z,36.50
2022-12-25T22:22:55.859Z,36.10
2022-12-25T22:25:25.867Z,36.40
2022-12-25T22:27:54.640Z,36.30
2022-12-25T22:30:26.433Z,36.60
2022-12-25T22:32:54.926Z,36.40
2022-12-25T22:35:23.489Z,36.70
2022-12-25T22:37:53.342Z,35.80
2022-12-25T22:40:25.979Z,36.40
2022-12-25T22:42:54.966Z,36.10
2022-12-25T22:45:23.139Z,36.60
2022-12-25T22:47:51.147Z,36.00
2022-12-25T22:50:19.383Z,36.70
2022-12-25T22:52:47.431Z,36.10
2022-12-25T22:55:19.105Z,36.40
2022-12-25T22:57:48.882Z,36.60
2022-12-25T23:00:17.010Z,36.20
2022-12-25T23:02:45.442Z,36.60
2022-12-25T23:05:13.886Z,36.00
2022-12-25T23:07:41.993Z,36.90
2022-12-25T23:10:11.610Z,37.30
2022-12-25T23:12:57.385Z,37.00
2022-12-25T23:15:27.578Z,37.10
2022-12-25T23:18:13.110Z,37.00
2022-12-25T23:20:59.072Z,37.50
2022-12-25T23:23:44.791Z,36.90
2022-12-25T23:26:15.404Z,37.50
2022-12-25T23:29:02.259Z,37.10
2022-12-25T23:31:34.774Z,36.60
2022-12-25T23:34:03.312Z,37.30
2022-12-25T23:36:31.326Z,37.50
2022-12-25T23:39:06.671Z,37.20
2022-12-25T23:41:37.444Z,37.40
2022-12-25T23:44:05.578Z,37.60
2022-12-25T23:46:35.034Z,37.30
2022-12-25T23:49:03.541Z,36.60
2022-12-25T23:51:31.629Z,37.30
2022-12-25T23:53:59.671Z,37.50
2022-12-25T23:56:27.740Z,36.90
2022-12-25T23:58:55.758Z,37.30
